South Alabama Regional At Bill Benton Field Airport
K79J : now visible

Airfield :











YOU CAN JOIN US ON...

 
LOGIN :

Register | Disclaimer

   EN    FR    IT 

 









Legend :    VFR   Marginal VFR   IFR   Intensive IFR   Very Intensive IFR
Visi :
Ceiling :
>= 8 km
>= 3000ft
5 to 8 km
1000 to 3000 ft
1500m to 5 km
500 to 1000 ft
800 to 1500m
200 to 500 ft
< 800m
< 200 ft
Symbols :   Thunderstorms  Fog  Heavy snow  Heavy precipitations  Wind > 20 kt







- Airport Elevation : 310 ft


K79J - South Alabama Regional At Bill Benton Field

CURRENT METAR :
  • 190656Z AUTO 10008KT 10SM FEW095 27/20 A3000 RMK AO2 SLP152 T02720200

EXPIRED METARs :
  • 190556Z AUTO 11006KT 10SM FEW080 FEW110 28/20 A3000 RMK AO2 SLP150 T02780200 10317 20267 53011
  • 190456Z AUTO 12003KT 10SM BKN090 OVC110 28/20 A2998 RMK AO2 SLP146 T02780200 404060244

TAF N/A
No reported NOTAMs for that airfield.



MET'MAP, your aeronautical weather chart ! - Copyright ORBIFLY December 2007 - Disclaimer

ORBIFLY MET'MAP TEAM :

Programming & Development : Alexandra Zaïnal
Concept & Development : Baudouin d'Aumeries
Co-Development & Prog : Marc-Olivier Méhu
Technical & hardware support : Manuel Goepfert

Contact : metmap@orbifly.com




SOURCES & CREDITS :

   NOAA       Earth
Advisory